Time;durP1;ratioP1;P1;durP2;ratioP2;P2;SDS_P1;SDS_P2;PMS_P1;PMS_P2;Temp;Humidity;BMP_temperature;BMP_pressure;BME280_temperature;BME280_humidity;BME280_pressure;Samples;Min_cycle;Max_cycle;Signal;HPM_P1;HPM_P2
2022/10/22 00:01:27;;;;;;;14.47;12.90;;;14.10;99.90;;;;;;5128799;27;20241;-68
2022/10/22 00:03:53;;;;;;;16.23;13.03;;;14.10;99.90;;;;;;5128524;27;20190;-67
2022/10/22 00:06:22;;;;;;;16.13;12.83;;;14.10;99.90;;;;;;5128986;27;20201;-67
2022/10/22 00:08:48;;;;;;;14.87;13.27;;;14.10;99.90;;;;;;5128914;27;20559;-67
2022/10/22 00:11:17;;;;;;;15.93;14.33;;;14.10;99.90;;;;;;5128601;27;20210;-67
2022/10/22 00:13:45;;;;;;;15.73;14.07;;;14.00;99.90;;;;;;5127910;27;20727;-67
2022/10/22 00:16:12;;;;;;;15.17;13.60;;;14.00;99.90;;;;;;5128933;27;20213;-67
2022/10/22 00:18:40;;;;;;;15.63;14.03;;;14.10;99.90;;;;;;5128367;27;20234;-67
2022/10/22 00:21:07;;;;;;;14.27;12.87;;;14.10;99.90;;;;;;5128631;27;20674;-67
2022/10/22 00:23:35;;;;;;;14.60;13.20;;;14.10;99.90;;;;;;5128511;27;20209;-67
2022/10/22 00:26:02;;;;;;;14.63;13.23;;;14.10;99.90;;;;;;5128645;27;20209;-68
2022/10/22 00:28:29;;;;;;;15.00;13.40;;;14.10;99.90;;;;;;5128017;27;20714;-68
2022/10/22 00:30:56;;;;;;;16.43;13.90;;;14.10;99.90;;;;;;5128887;27;20209;-67
2022/10/22 00:33:23;;;;;;;14.40;13.00;;;14.10;99.90;;;;;;5127631;27;20814;-67
2022/10/22 00:35:50;;;;;;;15.00;12.80;;;14.10;99.90;;;;;;5128703;27;20209;-68
2022/10/22 00:38:17;;;;;;;16.40;13.17;;;14.10;99.90;;;;;;5128548;27;20204;-67
2022/10/22 00:40:45;;;;;;;16.67;13.47;;;14.10;99.90;;;;;;5128388;27;20213;-67
2022/10/22 00:43:12;;;;;;;16.57;13.77;;;14.10;99.90;;;;;;5127934;27;20201;-67
2022/10/22 00:45:39;;;;;;;14.50;12.90;;;14.10;99.90;;;;;;5107874;28;20213;-67
2022/10/22 00:48:09;;;;;;;14.03;12.40;;;14.10;99.90;;;;;;5120416;28;20225;-67
2022/10/22 00:50:38;;;;;;;18.90;13.33;;;14.00;99.90;;;;;;5128233;27;20213;-67
2022/10/22 00:53:11;;;;;;;17.03;13.43;;;14.00;99.90;;;;;;5112452;27;20206;-67
2022/10/22 00:55:38;;;;;;;16.23;13.33;;;14.00;99.90;;;;;;5112343;28;20185;-68
2022/10/22 00:58:07;;;;;;;14.70;13.17;;;14.00;99.90;;;;;;5128470;27;20217;-67
2022/10/22 01:00:33;;;;;;;15.20;13.60;;;14.00;99.90;;;;;;5128695;27;20202;-68
2022/10/22 01:03:01;;;;;;;15.77;13.03;;;14.00;99.90;;;;;;5128953;27;20225;-67
2022/10/22 01:05:29;;;;;;;14.30;12.03;;;14.00;99.90;;;;;;5130142;27;20734;-67
2022/10/22 01:07:57;;;;;;;14.03;11.90;;;14.00;99.90;;;;;;5121371;27;20274;-68
2022/10/22 01:10:46;;;;;;;13.03;11.73;;;14.00;99.90;;;;;;5132164;27;20217;-68
2022/10/22 01:13:31;;;;;;;13.63;11.73;;;14.00;99.90;;;;;;5132435;27;20213;-67
2022/10/22 01:16:04;;;;;;;12.23;11.10;;;14.00;99.90;;;;;;5111820;27;20202;-67
2022/10/22 01:18:37;;;;;;;12.03;10.90;;;14.00;99.90;;;;;;5111316;28;20194;-67
2022/10/22 01:21:13;;;;;;;13.07;11.87;;;14.00;99.90;;;;;;5126585;27;20194;-67
2022/10/22 01:24:28;;;;;;;12.33;11.03;;;14.00;99.90;;;;;;5129593;27;20193;-68
2022/10/22 01:27:09;;;;;;;12.33;11.13;;;14.00;99.90;;;;;;5132153;27;20204;-67
2022/10/22 01:29:42;;;;;;;11.83;10.63;;;14.00;99.90;;;;;;5130272;27;20711;-68
2022/10/22 01:32:12;;;;;;;12.87;11.67;;;14.00;99.90;;;;;;5131817;27;20186;-67
2022/10/22 01:34:43;;;;;;;14.20;12.17;;;14.00;99.90;;;;;;5131633;27;20199;-67
2022/10/22 01:37:12;;;;;;;12.73;11.50;;;14.00;99.90;;;;;;5132058;27;20247;-68
2022/10/22 01:39:42;;;;;;;14.27;12.40;;;14.00;99.90;;;;;;5131495;27;20208;-68
2022/10/22 01:42:08;;;;;;;13.67;11.83;;;14.00;99.90;;;;;;5131659;27;20577;-67
2022/10/22 01:44:37;;;;;;;14.77;11.93;;;14.00;99.90;;;;;;5131627;27;20209;-67
2022/10/22 01:47:21;;;;;;;13.33;12.00;;;14.00;99.90;;;;;;5131771;27;20209;-68
2022/10/22 01:50:23;;;;;;;15.53;11.77;;;14.00;99.90;;;;;;5131599;27;20221;-67
2022/10/22 01:53:14;;;;;;;13.63;12.23;;;14.00;99.90;;;;;;5086968;28;20213;-67
2022/10/22 01:55:49;;;;;;;12.60;11.33;;;14.00;99.90;;;;;;5113732;27;20200;-68
2022/10/22 01:58:26;;;;;;;13.27;11.87;;;14.00;99.90;;;;;;5131088;27;20193;-68
2022/10/22 02:01:00;;;;;;;13.17;11.87;;;14.00;99.90;;;;;;5131562;27;20193;-67
2022/10/22 02:03:32;;;;;;;13.23;11.47;;;14.00;99.90;;;;;;5131265;27;20192;-67
2022/10/22 02:06:03;;;;;;;14.10;12.53;;;14.00;99.90;;;;;;5131371;27;20194;-68
2022/10/22 02:08:32;;;;;;;12.70;11.30;;;14.00;99.90;;;;;;5131357;27;20225;-68
2022/10/22 02:11:00;;;;;;;13.73;12.33;;;14.00;99.90;;;;;;5130803;27;20205;-67
2022/10/22 02:13:34;;;;;;;14.20;12.23;;;14.00;99.90;;;;;;5130718;27;20220;-68
2022/10/22 02:16:04;;;;;;;12.80;11.47;;;14.00;99.90;;;;;;5131178;27;20640;-68
2022/10/22 02:18:32;;;;;;;13.30;11.40;;;13.90;99.90;;;;;;5131313;27;20216;-67
2022/10/22 02:21:00;;;;;;;12.77;11.47;;;13.90;99.90;;;;;;5130979;27;20212;-67
2022/10/22 02:23:28;;;;;;;12.47;11.17;;;14.00;99.90;;;;;;5111695;27;20210;-67
2022/10/22 02:26:01;;;;;;;12.43;11.17;;;14.00;99.90;;;;;;5122743;27;20655;-67
2022/10/22 02:28:36;;;;;;;13.97;11.73;;;13.90;99.90;;;;;;5130780;27;20217;-69
2022/10/22 02:31:13;;;;;;;14.10;11.23;;;14.00;99.90;;;;;;5130716;27;20193;-67
2022/10/22 02:33:45;;;;;;;11.80;10.30;;;13.90;99.90;;;;;;5114475;27;20190;-69
2022/10/22 02:36:13;;;;;;;11.87;10.73;;;13.90;99.90;;;;;;5110540;28;20224;-67
2022/10/22 02:38:41;;;;;;;13.80;11.47;;;13.90;99.90;;;;;;5110055;27;20579;-67
2022/10/22 02:41:08;;;;;;;12.33;10.97;;;13.90;99.90;;;;;;5110418;28;20209;-67
2022/10/22 02:43:41;;;;;;;12.60;11.33;;;13.90;99.90;;;;;;5119235;27;20204;-67
2022/10/22 02:46:09;;;;;;;12.00;10.80;;;13.90;99.90;;;;;;5130671;27;20194;-67
2022/10/22 02:48:36;;;;;;;12.20;10.90;;;13.90;99.90;;;;;;5130453;27;20270;-67
2022/10/22 02:51:03;;;;;;;12.13;10.53;;;13.90;99.90;;;;;;5130431;27;20727;-67
2022/10/22 02:53:29;;;;;;;12.23;10.93;;;13.90;99.90;;;;;;5130535;27;20201;-67
2022/10/22 02:55:56;;;;;;;13.70;11.00;;;13.90;99.90;;;;;;5130361;27;20572;-67
2022/10/22 02:58:23;;;;;;;11.87;10.70;;;13.90;99.90;;;;;;5130130;27;20213;-67
2022/10/22 03:00:50;;;;;;;11.87;10.67;;;13.90;99.90;;;;;;5130522;27;20207;-67
2022/10/22 03:03:18;;;;;;;11.63;10.43;;;13.90;99.90;;;;;;5129923;27;20237;-67
2022/10/22 03:05:44;;;;;;;12.47;11.10;;;13.90;99.90;;;;;;5129560;27;20735;-67
2022/10/22 03:08:11;;;;;;;11.67;10.47;;;13.90;99.90;;;;;;5129765;27;20664;-67
2022/10/22 03:10:38;;;;;;;12.43;11.13;;;13.90;99.90;;;;;;5129241;27;20524;-67
2022/10/22 03:13:05;;;;;;;12.60;11.30;;;13.90;99.90;;;;;;5129864;27;20213;-67
2022/10/22 03:15:31;;;;;;;11.50;10.47;;;13.90;99.90;;;;;;5129681;27;20224;-66
2022/10/22 03:17:58;;;;;;;11.70;10.50;;;13.90;99.90;;;;;;5129926;27;20208;-67
2022/10/22 03:20:27;;;;;;;12.43;11.23;;;13.90;99.90;;;;;;5119966;27;20304;-67
2022/10/22 03:22:54;;;;;;;12.37;11.17;;;13.90;99.90;;;;;;5127943;27;20209;-67
2022/10/22 03:25:24;;;;;;;12.13;10.73;;;13.90;99.90;;;;;;5128679;27;20198;-67
2022/10/22 03:27:52;;;;;;;14.80;11.03;;;13.90;99.90;;;;;;5129612;27;20201;-67
2022/10/22 03:30:19;;;;;;;12.60;11.30;;;13.90;99.90;;;;;;5129444;27;20720;-67
2022/10/22 03:32:45;;;;;;;12.43;10.73;;;13.90;99.90;;;;;;5129301;27;20197;-67
2022/10/22 03:35:12;;;;;;;12.73;11.43;;;13.90;99.90;;;;;;5129621;27;20216;-67
2022/10/22 03:37:41;;;;;;;11.57;10.47;;;13.90;99.90;;;;;;5129551;27;20209;-67
2022/10/22 03:40:10;;;;;;;12.83;10.27;;;13.90;99.90;;;;;;5129233;27;20205;-67
2022/10/22 03:42:37;;;;;;;11.97;10.73;;;13.90;99.90;;;;;;5128770;27;20324;-67
2022/10/22 03:45:04;;;;;;;13.37;11.33;;;13.90;99.90;;;;;;5129145;27;20200;-67
2022/10/22 03:47:31;;;;;;;13.97;10.63;;;13.90;99.90;;;;;;5129208;27;20205;-67
2022/10/22 03:49:57;;;;;;;12.20;10.90;;;13.90;99.90;;;;;;5129094;27;20229;-67
2022/10/22 03:52:24;;;;;;;11.67;10.53;;;13.90;99.90;;;;;;5129128;27;20205;-67
2022/10/22 03:54:52;;;;;;;12.03;10.63;;;13.90;99.90;;;;;;5128795;27;20205;-67
2022/10/22 03:57:19;;;;;;;11.40;10.30;;;13.80;99.90;;;;;;5128874;27;20212;-67
2022/10/22 03:59:46;;;;;;;13.17;11.13;;;13.80;99.90;;;;;;5128821;27;20212;-67
2022/10/22 04:02:14;;;;;;;13.13;11.40;;;13.80;99.90;;;;;;5128902;27;20348;-67
2022/10/22 04:04:40;;;;;;;11.90;10.63;;;13.80;99.90;;;;;;5128984;27;20202;-67
2022/10/22 04:07:07;;;;;;;13.40;11.00;;;13.80;99.90;;;;;;5128719;27;20201;-67
2022/10/22 04:09:35;;;;;;;12.87;11.50;;;13.80;99.90;;;;;;5128614;27;20233;-67
2022/10/22 04:12:05;;;;;;;11.87;10.80;;;13.80;99.90;;;;;;5128672;27;20577;-67
2022/10/22 04:14:32;;;;;;;10.90;9.80;;;13.70;99.90;;;;;;5128107;27;20699;-67
2022/10/22 04:16:59;;;;;;;12.13;11.03;;;13.70;99.90;;;;;;5128093;27;20619;-67
2022/10/22 04:19:25;;;;;;;15.93;11.93;;;13.70;99.90;;;;;;5109064;27;20205;-67
2022/10/22 04:21:52;;;;;;;12.03;10.83;;;13.70;99.90;;;;;;5128672;27;20220;-67
2022/10/22 04:24:19;;;;;;;12.77;11.40;;;13.70;99.90;;;;;;5128555;27;20578;-67
2022/10/22 04:26:46;;;;;;;15.53;11.23;;;13.60;99.90;;;;;;5128944;27;20201;-67
2022/10/22 04:29:14;;;;;;;13.40;10.97;;;13.60;99.90;;;;;;5128257;27;20244;-67
2022/10/22 04:31:41;;;;;;;13.47;11.97;;;13.60;99.90;;;;;;5128462;27;20197;-67
2022/10/22 04:34:07;;;;;;;13.07;11.80;;;13.60;99.90;;;;;;5128620;27;20225;-68
2022/10/22 04:36:34;;;;;;;12.33;11.13;;;13.60;99.90;;;;;;5128402;27;20220;-67
2022/10/22 04:39:01;;;;;;;14.03;11.33;;;13.60;99.90;;;;;;5128232;27;20281;-67
2022/10/22 04:41:30;;;;;;;12.33;11.10;;;13.60;99.90;;;;;;5128304;27;20197;-67
2022/10/22 04:43:57;;;;;;;12.63;11.33;;;13.60;99.90;;;;;;5128629;27;20360;-67
2022/10/22 04:46:27;;;;;;;12.83;11.17;;;13.60;99.90;;;;;;5128468;27;20218;-67
2022/10/22 04:48:54;;;;;;;13.77;10.83;;;13.60;99.90;;;;;;5128249;27;20624;-68
2022/10/22 04:51:22;;;;;;;15.83;11.30;;;13.60;99.90;;;;;;5128282;27;20193;-68
2022/10/22 04:53:49;;;;;;;12.13;10.90;;;13.70;99.90;;;;;;5127990;27;20193;-67
2022/10/22 04:56:19;;;;;;;14.03;11.00;;;13.70;99.90;;;;;;5128164;27;20204;-67
2022/10/22 04:58:47;;;;;;;11.63;10.43;;;13.70;99.90;;;;;;5128119;27;20197;-67
2022/10/22 05:01:15;;;;;;;11.23;10.13;;;13.70;99.90;;;;;;5128080;27;20212;-68
2022/10/22 05:03:44;;;;;;;12.63;11.43;;;13.70;99.90;;;;;;5127902;27;20565;-67
2022/10/22 05:06:11;;;;;;;11.97;10.73;;;13.70;99.90;;;;;;5128063;27;20658;-68
2022/10/22 05:08:39;;;;;;;12.33;11.10;;;13.70;99.90;;;;;;5128079;27;21106;-67
2022/10/22 05:11:12;;;;;;;11.27;10.17;;;13.70;99.90;;;;;;5127865;27;20193;-67
2022/10/22 05:13:39;;;;;;;12.17;10.33;;;13.70;99.90;;;;;;5127436;27;20236;-67
2022/10/22 05:16:06;;;;;;;11.57;10.43;;;13.70;99.90;;;;;;5128305;27;20220;-67
2022/10/22 05:18:35;;;;;;;11.50;10.30;;;13.70;99.90;;;;;;5127858;27;20819;-67
2022/10/22 05:21:03;;;;;;;13.27;10.50;;;13.70;99.90;;;;;;5127908;27;20197;-68
2022/10/22 05:23:30;;;;;;;14.93;10.97;;;13.70;99.90;;;;;;5108227;27;20202;-68
2022/10/22 05:25:57;;;;;;;12.03;10.83;;;13.70;99.90;;;;;;5120688;28;20571;-68
2022/10/22 05:28:24;;;;;;;12.27;10.97;;;13.70;99.90;;;;;;5127665;27;20197;-68
2022/10/22 05:30:54;;;;;;;11.97;10.20;;;13.70;99.90;;;;;;5127913;27;20229;-69
2022/10/22 05:33:22;;;;;;;12.03;10.53;;;13.70;99.90;;;;;;5114609;27;20207;-68
2022/10/22 05:35:48;;;;;;;11.87;10.60;;;13.60;99.90;;;;;;5107551;28;20267;-68
2022/10/22 05:38:18;;;;;;;13.20;10.80;;;13.70;99.90;;;;;;5107710;28;20202;-68
2022/10/22 05:40:45;;;;;;;11.27;10.13;;;13.70;99.90;;;;;;5107212;28;20210;-68
2022/10/22 05:43:12;;;;;;;11.77;10.40;;;13.60;99.90;;;;;;5107073;28;20202;-68
2022/10/22 05:45:39;;;;;;;12.67;10.43;;;13.60;99.90;;;;;;5124791;28;20201;-68
2022/10/22 05:48:08;;;;;;;12.57;11.37;;;13.60;99.90;;;;;;5127373;27;20209;-68
2022/10/22 05:50:36;;;;;;;12.60;11.23;;;13.60;99.90;;;;;;5130893;27;20229;-68
2022/10/22 05:53:02;;;;;;;12.77;11.57;;;13.50;99.90;;;;;;5115700;27;20206;-68
2022/10/22 05:55:35;;;;;;;13.93;12.47;;;13.50;99.90;;;;;;5110532;28;20206;-68
2022/10/22 05:58:02;;;;;;;13.50;11.87;;;13.50;99.90;;;;;;5111029;28;20210;-69
2022/10/22 06:00:29;;;;;;;13.00;11.70;;;13.50;99.90;;;;;;5110537;28;20245;-69
2022/10/22 06:02:56;;;;;;;11.97;10.67;;;13.50;99.90;;;;;;5128250;27;20233;-68
2022/10/22 06:05:22;;;;;;;12.70;11.03;;;13.50;99.90;;;;;;5131464;27;20205;-68
2022/10/22 06:07:49;;;;;;;12.27;11.03;;;13.60;99.90;;;;;;5130354;27;20679;-68
2022/10/22 06:10:19;;;;;;;12.40;10.37;;;13.50;99.90;;;;;;5129441;27;20245;-68
2022/10/22 06:12:48;;;;;;;11.80;10.80;;;13.50;99.90;;;;;;5131030;27;20201;-68
2022/10/22 06:15:17;;;;;;;12.13;10.93;;;13.50;99.90;;;;;;5131106;27;20387;-68
2022/10/22 06:17:45;;;;;;;12.23;11.03;;;13.50;99.90;;;;;;5130932;27;20201;-68
2022/10/22 06:20:12;;;;;;;13.67;11.23;;;13.50;99.90;;;;;;5130709;27;20579;-68
2022/10/22 06:22:39;;;;;;;11.53;10.13;;;13.50;99.90;;;;;;5118448;27;20202;-68
2022/10/22 06:25:07;;;;;;;12.00;10.77;;;13.50;99.90;;;;;;5110304;27;20209;-68
2022/10/22 06:27:34;;;;;;;12.47;10.97;;;13.50;99.90;;;;;;5110231;28;20617;-68
2022/10/22 06:30:02;;;;;;;11.77;10.67;;;13.50;99.90;;;;;;5110024;28;20225;-68
2022/10/22 06:32:28;;;;;;;11.93;10.47;;;13.50;99.90;;;;;;5110277;28;20208;-68
2022/10/22 06:34:55;;;;;;;13.77;11.20;;;13.60;99.90;;;;;;5110558;28;20210;-68
2022/10/22 06:37:22;;;;;;;11.70;10.60;;;13.60;99.90;;;;;;5128580;27;20197;-68
2022/10/22 06:39:51;;;;;;;12.47;10.70;;;13.60;99.90;;;;;;5130497;27;20224;-68
2022/10/22 06:42:18;;;;;;;16.00;11.43;;;13.70;99.90;;;;;;5130740;27;20585;-68
2022/10/22 06:44:44;;;;;;;12.77;10.63;;;13.70;99.90;;;;;;5130363;27;20202;-68
2022/10/22 06:47:12;;;;;;;14.10;10.73;;;13.70;99.90;;;;;;5130667;27;20210;-68
2022/10/22 06:49:39;;;;;;;12.70;10.07;;;13.70;99.90;;;;;;5130310;27;20264;-68
2022/10/22 06:52:06;;;;;;;11.37;10.27;;;13.70;99.90;;;;;;5130395;27;20608;-68
2022/10/22 06:54:33;;;;;;;11.37;10.13;;;13.70;99.90;;;;;;5129970;27;20197;-68
2022/10/22 06:56:59;;;;;;;11.10;10.20;;;13.70;99.90;;;;;;5130486;27;20213;-68
2022/10/22 06:59:26;;;;;;;11.13;10.03;;;13.70;99.90;;;;;;5130418;27;20601;-68
2022/10/22 07:01:53;;;;;;;11.33;10.27;;;13.70;99.90;;;;;;5128799;27;20241;-68
2022/10/22 07:04:21;;;;;;;11.60;10.33;;;13.80;99.90;;;;;;5128771;27;20201;-68
2022/10/22 07:06:47;;;;;;;10.77;9.77;;;13.80;99.90;;;;;;5129786;27;20209;-68
2022/10/22 07:09:14;;;;;;;10.67;9.67;;;13.80;99.90;;;;;;5129629;27;20754;-68
2022/10/22 07:11:44;;;;;;;10.47;9.40;;;13.80;99.90;;;;;;5129859;27;20202;-68
2022/10/22 07:14:12;;;;;;;10.63;9.73;;;13.80;99.90;;;;;;5129995;27;20221;-68
2022/10/22 07:16:40;;;;;;;11.67;10.33;;;13.80;99.90;;;;;;5130000;27;20202;-68
2022/10/22 07:19:07;;;;;;;11.23;9.87;;;13.80;99.90;;;;;;5111153;27;20213;-68
2022/10/22 07:21:35;;;;;;;9.80;8.80;;;13.90;99.90;;;;;;5109436;28;20210;-68
2022/10/22 07:24:02;;;;;;;11.13;9.90;;;13.90;99.90;;;;;;5109213;28;20202;-68
2022/10/22 07:26:31;;;;;;;11.03;9.47;;;13.90;99.90;;;;;;5114054;27;20209;-68
2022/10/22 07:28:58;;;;;;;10.80;9.70;;;13.90;99.90;;;;;;5129646;27;20559;-68
2022/10/22 07:31:25;;;;;;;13.30;12.00;;;13.90;99.90;;;;;;5129777;27;20236;-68
2022/10/22 07:33:52;;;;;;;12.50;11.40;;;13.90;99.90;;;;;;5111629;27;20213;-68
2022/10/22 07:36:19;;;;;;;12.00;10.63;;;13.90;99.90;;;;;;5109199;28;20210;-68
2022/10/22 07:38:48;;;;;;;13.50;11.70;;;13.90;99.90;;;;;;5108841;28;20217;-68
2022/10/22 07:41:16;;;;;;;14.80;10.63;;;14.00;99.90;;;;;;5108475;28;20624;-68
2022/10/22 07:43:43;;;;;;;12.73;11.43;;;13.90;99.90;;;;;;5116630;27;20197;-68
2022/10/22 07:46:10;;;;;;;11.40;10.27;;;13.90;99.90;;;;;;5129080;27;20194;-68
2022/10/22 07:48:38;;;;;;;14.17;11.53;;;13.90;99.90;;;;;;5129347;27;20205;-68
2022/10/22 07:51:05;;;;;;;11.60;10.60;;;13.90;99.90;;;;;;5128768;27;20695;-68
2022/10/22 07:53:32;;;;;;;11.87;10.73;;;14.00;99.90;;;;;;5129136;27;20258;-68
2022/10/22 07:56:00;;;;;;;12.23;10.93;;;14.00;99.90;;;;;;5128850;27;20201;-68
2022/10/22 07:58:27;;;;;;;12.17;10.97;;;14.00;99.90;;;;;;5129276;27;20246;-68
2022/10/22 08:00:59;;;;;;;12.17;10.97;;;14.00;99.90;;;;;;5129171;27;20558;-68
2022/10/22 08:03:26;;;;;;;14.90;10.30;;;14.00;99.90;;;;;;5127365;27;20203;-68
2022/10/22 08:05:54;;;;;;;13.80;11.53;;;14.00;99.90;;;;;;5128671;27;20227;-68
2022/10/22 08:08:21;;;;;;;11.97;10.87;;;14.10;99.90;;;;;;5128805;27;20202;-68
2022/10/22 08:10:51;;;;;;;13.30;11.17;;;14.10;99.90;;;;;;5128733;27;20225;-68
2022/10/22 08:13:20;;;;;;;12.13;11.00;;;14.10;99.90;;;;;;5128465;27;21011;-68
2022/10/22 08:15:47;;;;;;;11.90;10.60;;;14.10;99.90;;;;;;5128756;27;20205;-68
2022/10/22 08:18:14;;;;;;;14.60;10.50;;;14.10;99.90;;;;;;5128898;27;20220;-68
2022/10/22 08:20:41;;;;;;;13.33;12.13;;;14.10;99.90;;;;;;5128518;27;20213;-68
2022/10/22 08:23:08;;;;;;;14.83;11.63;;;14.10;99.90;;;;;;5112149;27;20214;-68
2022/10/22 08:25:35;;;;;;;13.47;11.80;;;14.10;99.90;;;;;;5118085;27;20205;-68
2022/10/22 08:28:02;;;;;;;12.43;11.13;;;14.10;99.90;;;;;;5128598;27;20198;-68
2022/10/22 08:30:30;;;;;;;13.03;11.73;;;14.20;99.90;;;;;;5128486;27;20225;-68
2022/10/22 08:32:56;;;;;;;13.43;12.00;;;14.20;99.90;;;;;;5127918;27;20228;-68
2022/10/22 08:35:23;;;;;;;13.50;12.20;;;14.20;99.90;;;;;;5128474;27;20212;-68
2022/10/22 08:37:50;;;;;;;15.73;12.17;;;14.20;99.90;;;;;;5128785;27;20220;-68
2022/10/22 08:40:24;;;;;;;15.27;13.43;;;14.20;99.90;;;;;;5128568;27;20205;-68
2022/10/22 08:43:10;;;;;;;25.67;21.70;;;14.20;99.90;;;;;;5128502;27;20190;-68
2022/10/22 08:45:44;;;;;;;19.00;17.00;;;14.20;99.90;;;;;;5128365;27;20194;-68
2022/10/22 08:48:28;;;;;;;19.03;12.87;;;14.20;99.90;;;;;;5128513;27;20184;-68
2022/10/22 08:50:57;;;;;;;14.33;12.93;;;14.20;99.90;;;;;;5128081;27;20644;-68
2022/10/22 08:53:39;;;;;;;15.20;13.27;;;14.30;99.90;;;;;;5128434;27;20209;-68
2022/10/22 08:56:06;;;;;;;16.17;13.67;;;14.20;99.90;;;;;;5127942;27;20652;-68
2022/10/22 08:58:39;;;;;;;14.93;13.50;;;14.30;99.90;;;;;;5127738;27;20207;-68
2022/10/22 09:01:13;;;;;;;15.97;12.70;;;14.30;99.90;;;;;;5128128;27;20190;-68
2022/10/22 09:03:47;;;;;;;14.37;12.40;;;14.30;99.90;;;;;;5128266;27;20202;-68
2022/10/22 09:06:15;;;;;;;13.77;12.30;;;14.30;99.90;;;;;;5128304;27;20220;-68
2022/10/22 09:08:44;;;;;;;14.93;11.80;;;14.30;99.90;;;;;;5128263;27;20205;-68
2022/10/22 09:11:24;;;;;;;16.53;12.50;;;14.40;99.90;;;;;;5115186;27;20231;-68
2022/10/22 09:13:53;;;;;;;14.20;11.93;;;14.40;99.90;;;;;;5128215;27;20217;-68
2022/10/22 09:16:29;;;;;;;13.50;11.50;;;14.40;99.90;;;;;;5128267;27;20907;-68
2022/10/22 09:19:05;;;;;;;14.33;12.10;;;14.50;99.90;;;;;;5128338;27;20189;-68
2022/10/22 09:21:40;;;;;;;14.30;11.97;;;14.50;99.90;;;;;;5109023;27;20205;-68
2022/10/22 09:24:12;;;;;;;13.53;12.23;;;14.50;99.90;;;;;;5108621;28;20530;-68
2022/10/22 09:26:41;;;;;;;14.17;11.73;;;14.50;99.90;;;;;;5111785;28;20199;-68
2022/10/22 09:29:17;;;;;;;13.90;12.53;;;14.50;99.90;;;;;;5111812;28;20228;-68
2022/10/22 09:31:45;;;;;;;13.50;12.00;;;14.60;99.90;;;;;;5111172;28;20225;-68
2022/10/22 09:34:15;;;;;;;13.07;11.73;;;14.60;99.90;;;;;;5127883;27;20209;-68
2022/10/22 09:36:41;;;;;;;16.10;11.77;;;14.70;99.90;;;;;;5131700;27;20212;-68
2022/10/22 09:39:22;;;;;;;13.33;12.03;;;14.70;99.90;;;;;;5131700;27;20742;-68
2022/10/22 09:41:49;;;;;;;14.10;12.17;;;14.70;99.90;;;;;;5131993;27;20193;-68
2022/10/22 09:44:17;;;;;;;14.33;12.17;;;14.80;99.90;;;;;;5131804;27;20548;-68
2022/10/22 09:46:45;;;;;;;13.77;12.37;;;14.80;99.90;;;;;;5131804;27;20205;-68
2022/10/22 09:49:15;;;;;;;13.07;11.67;;;14.80;99.90;;;;;;5131847;27;20201;-68
2022/10/22 09:51:53;;;;;;;13.43;12.00;;;14.80;99.90;;;;;;5127253;27;20230;-68
2022/10/22 09:54:21;;;;;;;14.20;12.27;;;14.80;99.90;;;;;;5111134;28;20194;-68
2022/10/22 09:56:52;;;;;;;13.83;11.73;;;14.80;99.90;;;;;;5130656;27;20209;-68
2022/10/22 09:59:26;;;;;;;15.83;11.93;;;14.80;99.90;;;;;;5131647;27;20201;-68
2022/10/22 10:02:06;;;;;;;25.90;12.93;;;14.80;99.90;;;;;;5131539;27;20236;-68
2022/10/22 10:04:35;;;;;;;13.47;11.33;;;14.90;99.90;;;;;;5131296;27;20212;-68
2022/10/22 10:07:02;;;;;;;14.40;13.00;;;14.90;99.90;;;;;;5131444;27;20217;-68
2022/10/22 10:09:33;;;;;;;13.93;12.53;;;14.90;99.90;;;;;;5131022;27;20205;-68
2022/10/22 10:12:09;;;;;;;14.57;12.90;;;14.90;99.90;;;;;;5130842;27;20758;-68
2022/10/22 10:14:42;;;;;;;13.93;12.53;;;15.00;99.90;;;;;;5130791;27;20221;-68
2022/10/22 10:17:19;;;;;;;13.73;12.50;;;15.00;99.90;;;;;;5131347;27;20205;-68
2022/10/22 10:19:57;;;;;;;20.60;13.80;;;15.10;99.90;;;;;;5131081;27;20197;-68
2022/10/22 10:22:41;;;;;;;15.20;12.10;;;15.10;99.90;;;;;;5120906;27;20202;-68
2022/10/22 10:25:35;;;;;;;13.33;11.43;;;15.20;99.90;;;;;;5110502;27;20194;-68
2022/10/22 10:28:17;;;;;;;12.03;10.87;;;15.20;99.90;;;;;;5110409;28;20195;-68
2022/10/22 10:30:51;;;;;;;12.87;11.33;;;15.20;99.90;;;;;;5110221;28;20385;-68
2022/10/22 10:33:30;;;;;;;14.30;12.27;;;15.30;99.90;;;;;;5118859;27;20196;-68
2022/10/22 10:36:04;;;;;;;13.73;12.50;;;15.20;99.90;;;;;;5130395;27;20193;-68
2022/10/22 10:38:41;;;;;;;13.57;12.17;;;15.20;99.90;;;;;;5130673;27;20192;-67
2022/10/22 10:41:18;;;;;;;13.67;12.27;;;15.20;99.90;;;;;;5130488;27;20193;-68
2022/10/22 10:43:58;;;;;;;13.60;12.30;;;15.20;99.90;;;;;;5130396;27;20196;-68
2022/10/22 10:46:39;;;;;;;13.90;12.40;;;15.30;99.90;;;;;;5130581;27;20193;-68
2022/10/22 10:49:10;;;;;;;13.33;11.47;;;15.40;99.90;;;;;;5130274;27;20193;-68
2022/10/22 10:51:46;;;;;;;16.73;12.67;;;15.50;99.90;;;;;;5124471;27;20229;-68
2022/10/22 10:54:41;;;;;;;12.87;11.33;;;15.50;99.90;;;;;;5130362;27;20190;-68
2022/10/22 10:57:16;;;;;;;13.30;11.40;;;15.60;99.90;;;;;;5116561;27;20576;-68
2022/10/22 10:59:54;;;;;;;12.07;10.87;;;15.80;99.90;;;;;;5130165;27;20189;-68
2022/10/22 11:02:50;;;;;;;11.27;10.13;;;16.00;99.90;;;;;;5129956;27;20260;-68
2022/10/22 11:05:29;;;;;;;11.87;9.80;;;16.30;99.90;;;;;;5109789;28;20730;-68
2022/10/22 11:07:59;;;;;;;11.80;9.17;;;16.50;99.90;;;;;;5109903;28;20205;-68
2022/10/22 11:10:31;;;;;;;11.50;9.77;;;16.70;99.90;;;;;;5109645;27;20201;-68
2022/10/22 11:13:06;;;;;;;11.57;8.53;;;16.90;99.90;;;;;;5109556;28;20708;-68
2022/10/22 11:15:35;;;;;;;9.57;8.67;;;17.00;99.90;;;;;;5109499;28;20194;-68
2022/10/22 11:18:11;;;;;;;11.37;10.13;;;17.10;99.90;;;;;;5114806;27;20694;-68
2022/10/22 11:20:49;;;;;;;10.30;9.30;;;17.30;99.90;;;;;;5130199;27;20201;-68
2022/10/22 11:23:23;;;;;;;9.33;8.53;;;17.40;99.90;;;;;;5111996;27;20198;-68
2022/10/22 11:25:50;;;;;;;10.83;9.40;;;17.40;99.90;;;;;;5109203;28;20202;-68
2022/10/22 11:28:23;;;;;;;8.77;7.93;;;17.60;99.90;;;;;;5109476;28;20206;-68
2022/10/22 11:30:58;;;;;;;8.40;7.60;;;17.80;99.90;;;;;;5109373;28;20190;-68
2022/10/22 11:33:29;;;;;;;8.23;7.43;;;18.00;99.90;;;;;;5117106;27;20196;-68
2022/10/22 11:35:59;;;;;;;9.63;8.03;;;18.10;99.90;;;;;;5129827;27;20196;-69
2022/10/22 11:38:26;;;;;;;8.50;7.63;;;18.20;99.90;;;;;;5129455;27;20190;-68
2022/10/22 11:40:58;;;;;;;9.70;8.50;;;18.40;99.90;;;;;;5129332;27;20210;-68
2022/10/22 11:43:31;;;;;;;11.03;8.60;;;18.40;99.90;;;;;;5129673;27;20553;-68
2022/10/22 11:46:03;;;;;;;10.43;7.53;;;18.50;99.90;;;;;;5129434;27;20663;-68
2022/10/22 11:48:37;;;;;;;8.50;7.70;;;18.60;99.90;;;;;;5128302;27;20205;-68
2022/10/22 11:51:29;;;;;;;7.60;6.90;;;18.80;99.90;;;;;;5129414;27;20677;-68
2022/10/22 11:53:57;;;;;;;7.93;7.23;;;18.90;99.90;;;;;;5108434;28;20195;-68
2022/10/22 11:56:26;;;;;;;7.40;6.67;;;19.00;99.90;;;;;;5108668;28;20213;-68
2022/10/22 11:58:54;;;;;;;8.00;6.10;;;19.10;99.90;;;;;;5114919;27;20204;-68
2022/10/22 12:01:27;;;;;;;7.40;6.27;;;18.90;99.90;;;;;;5129166;27;20688;-68
2022/10/22 12:04:19;;;;;;;6.10;5.50;;;19.00;99.90;;;;;;5129054;27;20216;-68
2022/10/22 12:06:57;;;;;;;6.30;5.80;;;19.10;99.90;;;;;;5129208;27;20205;-68
2022/10/22 12:09:25;;;;;;;6.23;5.17;;;19.00;99.90;;;;;;5129167;27;20190;-68
2022/10/22 12:11:52;;;;;;;8.90;6.00;;;19.10;99.90;;;;;;5128686;27;20742;-68
2022/10/22 12:14:25;;;;;;;6.30;5.70;;;19.20;99.90;;;;;;5128501;27;20228;-68
2022/10/22 12:16:55;;;;;;;5.80;4.90;;;19.20;99.90;;;;;;5128751;27;20194;-68
2022/10/22 12:19:27;;;;;;;7.27;5.33;;;19.40;99.90;;;;;;5128918;27;20201;-68
2022/10/22 12:21:59;;;;;;;5.50;4.63;;;19.60;99.90;;;;;;5128764;27;20208;-68
2022/10/22 12:24:31;;;;;;;6.40;4.50;;;19.70;99.90;;;;;;5128854;27;20198;-68
2022/10/22 12:26:58;;;;;;;6.53;4.30;;;19.80;99.90;;;;;;5128903;27;20205;-68
2022/10/22 12:29:25;;;;;;;4.67;4.10;;;19.90;99.90;;;;;;5128483;27;20201;-68
2022/10/22 12:31:52;;;;;;;6.30;5.00;;;19.80;99.90;;;;;;5128074;27;20232;-68
2022/10/22 12:34:22;;;;;;;6.70;5.87;;;19.90;99.90;;;;;;5128886;27;20209;-69
2022/10/22 12:36:51;;;;;;;4.60;4.20;;;19.80;99.90;;;;;;5128137;27;20673;-69
2022/10/22 12:39:20;;;;;;;7.33;4.03;;;19.90;99.90;;;;;;5128179;27;20861;-69
2022/10/22 12:41:48;;;;;;;4.73;3.83;;;20.00;99.90;;;;;;5128445;27;20204;-68
2022/10/22 12:44:17;;;;;;;4.47;3.80;;;20.10;99.90;;;;;;5127566;27;20225;-68
2022/10/22 12:46:45;;;;;;;4.67;3.57;;;20.20;99.90;;;;;;5128114;27;20531;-68